sensor_id;sensor_type;location;lat;lon;timestamp;temperature;humidity
31809;DHT22;18379;48.208;-1.518;2023-04-25T00:00:13;7.70;99.90
31809;DHT22;18379;48.208;-1.518;2023-04-25T00:05:14;7.70;99.90
31809;DHT22;18379;48.208;-1.518;2023-04-25T00:10:17;7.60;99.90
31809;DHT22;18379;48.208;-1.518;2023-04-25T00:15:19;7.60;99.90
31809;DHT22;18379;48.208;-1.518;2023-04-25T00:20:20;7.50;99.90
31809;DHT22;18379;48.208;-1.518;2023-04-25T00:25:20;7.50;99.90
31809;DHT22;18379;48.208;-1.518;2023-04-25T00:30:21;7.40;99.90
31809;DHT22;18379;48.208;-1.518;2023-04-25T00:35:22;7.40;99.90
31809;DHT22;18379;48.208;-1.518;2023-04-25T00:40:23;7.30;99.90
31809;DHT22;18379;48.208;-1.518;2023-04-25T00:45:27;7.30;99.90
31809;DHT22;18379;48.208;-1.518;2023-04-25T00:50:29;7.20;99.90
31809;DHT22;18379;48.208;-1.518;2023-04-25T00:55:30;7.20;99.90
31809;DHT22;18379;48.208;-1.518;2023-04-25T01:00:32;7.10;99.90
31809;DHT22;18379;48.208;-1.518;2023-04-25T01:05:33;7.10;99.90
31809;DHT22;18379;48.208;-1.518;2023-04-25T01:10:33;7.10;99.90
31809;DHT22;18379;48.208;-1.518;2023-04-25T01:15:35;7.00;99.90
31809;DHT22;18379;48.208;-1.518;2023-04-25T01:20:37;7.00;99.90
31809;DHT22;18379;48.208;-1.518;2023-04-25T01:25:42;6.90;99.90
31809;DHT22;18379;48.208;-1.518;2023-04-25T01:30:43;6.90;99.90
31809;DHT22;18379;48.208;-1.518;2023-04-25T01:35:44;6.80;99.90
31809;DHT22;18379;48.208;-1.518;2023-04-25T01:40:45;6.80;99.90
31809;DHT22;18379;48.208;-1.518;2023-04-25T01:45:48;6.80;99.90
31809;DHT22;18379;48.208;-1.518;2023-04-25T01:50:52;6.80;99.90
31809;DHT22;18379;48.208;-1.518;2023-04-25T01:55:53;6.70;99.90
31809;DHT22;18379;48.208;-1.518;2023-04-25T02:00:53;6.60;99.90
31809;DHT22;18379;48.208;-1.518;2023-04-25T02:05:54;6.60;99.90
31809;DHT22;18379;48.208;-1.518;2023-04-25T02:10:55;6.50;99.90
31809;DHT22;18379;48.208;-1.518;2023-04-25T02:15:56;6.50;99.90
31809;DHT22;18379;48.208;-1.518;2023-04-25T02:20:59;6.50;99.90
31809;DHT22;18379;48.208;-1.518;2023-04-25T02:26:00;6.60;99.90
31809;DHT22;18379;48.208;-1.518;2023-04-25T02:31:00;6.60;99.90
31809;DHT22;18379;48.208;-1.518;2023-04-25T02:36:01;6.60;99.90
31809;DHT22;18379;48.208;-1.518;2023-04-25T02:41:02;6.60;99.90
31809;DHT22;18379;48.208;-1.518;2023-04-25T02:46:03;6.60;99.90
31809;DHT22;18379;48.208;-1.518;2023-04-25T02:51:05;6.50;99.90
31809;DHT22;18379;48.208;-1.518;2023-04-25T02:56:06;6.60;99.90
31809;DHT22;18379;48.208;-1.518;2023-04-25T03:01:07;6.60;99.90
31809;DHT22;18379;48.208;-1.518;2023-04-25T03:06:07;6.80;99.90
31809;DHT22;18379;48.208;-1.518;2023-04-25T03:11:08;6.90;99.90
31809;DHT22;18379;48.208;-1.518;2023-04-25T03:16:09;7.00;99.90
31809;DHT22;18379;48.208;-1.518;2023-04-25T03:21:10;6.90;99.90
31809;DHT22;18379;48.208;-1.518;2023-04-25T03:26:11;6.80;99.90
31809;DHT22;18379;48.208;-1.518;2023-04-25T03:31:11;6.80;99.90
31809;DHT22;18379;48.208;-1.518;2023-04-25T03:36:12;6.80;99.90
31809;DHT22;18379;48.208;-1.518;2023-04-25T03:41:13;6.70;99.90
31809;DHT22;18379;48.208;-1.518;2023-04-25T03:46:14;6.70;99.90
31809;DHT22;18379;48.208;-1.518;2023-04-25T03:51:14;6.70;99.90
31809;DHT22;18379;48.208;-1.518;2023-04-25T03:56:16;6.70;99.90
31809;DHT22;18379;48.208;-1.518;2023-04-25T04:01:16;6.60;99.90
31809;DHT22;18379;48.208;-1.518;2023-04-25T04:06:18;6.60;99.90
31809;DHT22;18379;48.208;-1.518;2023-04-25T04:11:19;6.60;99.90
31809;DHT22;18379;48.208;-1.518;2023-04-25T04:16:21;6.60;99.90
31809;DHT22;18379;48.208;-1.518;2023-04-25T04:21:22;6.60;99.90
31809;DHT22;18379;48.208;-1.518;2023-04-25T04:26:23;6.50;99.90
31809;DHT22;18379;48.208;-1.518;2023-04-25T04:31:24;6.40;99.90
31809;DHT22;18379;48.208;-1.518;2023-04-25T04:36:25;6.40;99.90
31809;DHT22;18379;48.208;-1.518;2023-04-25T04:41:27;6.40;99.90
31809;DHT22;18379;48.208;-1.518;2023-04-25T04:46:31;6.40;99.90
31809;DHT22;18379;48.208;-1.518;2023-04-25T04:51:32;6.30;99.90
31809;DHT22;18379;48.208;-1.518;2023-04-25T04:56:32;6.30;99.90
31809;DHT22;18379;48.208;-1.518;2023-04-25T05:01:34;6.30;99.90
31809;DHT22;18379;48.208;-1.518;2023-04-25T05:06:36;6.40;99.90
31809;DHT22;18379;48.208;-1.518;2023-04-25T05:11:37;6.40;99.90
31809;DHT22;18379;48.208;-1.518;2023-04-25T05:16:38;6.50;99.90
31809;DHT22;18379;48.208;-1.518;2023-04-25T05:21:38;6.60;99.90
31809;DHT22;18379;48.208;-1.518;2023-04-25T05:26:39;6.60;99.90
31809;DHT22;18379;48.208;-1.518;2023-04-25T05:31:40;6.60;99.90
31809;DHT22;18379;48.208;-1.518;2023-04-25T05:36:41;6.80;99.90
31809;DHT22;18379;48.208;-1.518;2023-04-25T05:41:42;6.80;99.90
31809;DHT22;18379;48.208;-1.518;2023-04-25T05:46:43;6.90;99.90
31809;DHT22;18379;48.208;-1.518;2023-04-25T05:51:44;7.00;99.90
31809;DHT22;18379;48.208;-1.518;2023-04-25T05:56:45;7.10;99.90
31809;DHT22;18379;48.208;-1.518;2023-04-25T06:01:45;7.30;99.90
31809;DHT22;18379;48.208;-1.518;2023-04-25T06:06:47;7.40;99.90
31809;DHT22;18379;48.208;-1.518;2023-04-25T06:11:48;7.60;99.90
31809;DHT22;18379;48.208;-1.518;2023-04-25T06:16:49;7.70;99.90
31809;DHT22;18379;48.208;-1.518;2023-04-25T06:21:50;7.70;99.90
31809;DHT22;18379;48.208;-1.518;2023-04-25T06:26:50;7.60;99.90
31809;DHT22;18379;48.208;-1.518;2023-04-25T06:31:51;7.70;99.90
31809;DHT22;18379;48.208;-1.518;2023-04-25T06:36:52;7.50;99.90
31809;DHT22;18379;48.208;-1.518;2023-04-25T06:41:53;7.60;99.90
31809;DHT22;18379;48.208;-1.518;2023-04-25T06:46:53;7.70;99.90
31809;DHT22;18379;48.208;-1.518;2023-04-25T06:51:54;7.70;99.90
31809;DHT22;18379;48.208;-1.518;2023-04-25T06:56:56;7.70;99.90
31809;DHT22;18379;48.208;-1.518;2023-04-25T07:01:57;7.80;99.90
31809;DHT22;18379;48.208;-1.518;2023-04-25T07:06:58;8.10;99.90
31809;DHT22;18379;48.208;-1.518;2023-04-25T07:11:59;8.40;99.90
31809;DHT22;18379;48.208;-1.518;2023-04-25T07:17:03;8.70;99.90
31809;DHT22;18379;48.208;-1.518;2023-04-25T07:22:04;8.90;99.90
31809;DHT22;18379;48.208;-1.518;2023-04-25T07:27:05;8.90;99.90
31809;DHT22;18379;48.208;-1.518;2023-04-25T07:32:05;9.00;99.90
31809;DHT22;18379;48.208;-1.518;2023-04-25T07:37:06;9.10;99.90
31809;DHT22;18379;48.208;-1.518;2023-04-25T07:42:07;9.30;99.90
31809;DHT22;18379;48.208;-1.518;2023-04-25T07:47:09;9.50;99.90
31809;DHT22;18379;48.208;-1.518;2023-04-25T07:52:10;9.80;99.90
31809;DHT22;18379;48.208;-1.518;2023-04-25T07:57:10;9.90;99.90
31809;DHT22;18379;48.208;-1.518;2023-04-25T08:02:11;10.00;99.90
31809;DHT22;18379;48.208;-1.518;2023-04-25T08:07:12;9.70;99.90
31809;DHT22;18379;48.208;-1.518;2023-04-25T08:12:14;9.90;99.90
31809;DHT22;18379;48.208;-1.518;2023-04-25T08:17:15;10.20;99.90
31809;DHT22;18379;48.208;-1.518;2023-04-25T08:22:16;10.40;99.90
31809;DHT22;18379;48.208;-1.518;2023-04-25T08:27:18;10.60;99.90
31809;DHT22;18379;48.208;-1.518;2023-04-25T08:32:19;10.70;99.90
31809;DHT22;18379;48.208;-1.518;2023-04-25T08:37:21;10.80;99.90
31809;DHT22;18379;48.208;-1.518;2023-04-25T08:42:24;11.00;99.90
31809;DHT22;18379;48.208;-1.518;2023-04-25T08:47:26;10.50;99.90
31809;DHT22;18379;48.208;-1.518;2023-04-25T08:52:32;10.60;99.90
31809;DHT22;18379;48.208;-1.518;2023-04-25T08:57:36;10.90;99.90
31809;DHT22;18379;48.208;-1.518;2023-04-25T09:02:38;10.90;99.90
31809;DHT22;18379;48.208;-1.518;2023-04-25T09:07:40;10.70;99.90
31809;DHT22;18379;48.208;-1.518;2023-04-25T09:12:40;11.10;99.90
31809;DHT22;18379;48.208;-1.518;2023-04-25T09:17:42;11.10;99.90
31809;DHT22;18379;48.208;-1.518;2023-04-25T09:22:45;11.20;99.90
31809;DHT22;18379;48.208;-1.518;2023-04-25T09:27:50;11.20;99.90
31809;DHT22;18379;48.208;-1.518;2023-04-25T09:32:56;11.50;99.90
31809;DHT22;18379;48.208;-1.518;2023-04-25T09:37:57;12.00;99.90
31809;DHT22;18379;48.208;-1.518;2023-04-25T09:43:01;12.40;99.90
31809;DHT22;18379;48.208;-1.518;2023-04-25T09:48:23;12.70;99.90
31809;DHT22;18379;48.208;-1.518;2023-04-25T09:53:25;13.50;99.90
31809;DHT22;18379;48.208;-1.518;2023-04-25T09:58:33;13.90;99.90
31809;DHT22;18379;48.208;-1.518;2023-04-25T10:03:37;13.70;99.90
31809;DHT22;18379;48.208;-1.518;2023-04-25T10:08:38;13.70;99.90
31809;DHT22;18379;48.208;-1.518;2023-04-25T10:13:40;14.30;99.90
31809;DHT22;18379;48.208;-1.518;2023-04-25T10:18:42;14.60;99.90
31809;DHT22;18379;48.208;-1.518;2023-04-25T10:23:43;14.30;99.90
31809;DHT22;18379;48.208;-1.518;2023-04-25T10:33:57;13.90;99.90
31809;DHT22;18379;48.208;-1.518;2023-04-25T10:39:04;13.90;99.90
31809;DHT22;18379;48.208;-1.518;2023-04-25T10:44:08;14.40;99.90
31809;DHT22;18379;48.208;-1.518;2023-04-25T10:49:09;14.30;99.90
31809;DHT22;18379;48.208;-1.518;2023-04-25T10:54:11;14.40;99.90
31809;DHT22;18379;48.208;-1.518;2023-04-25T10:59:14;14.30;99.90
31809;DHT22;18379;48.208;-1.518;2023-04-25T11:04:31;13.50;99.90
31809;DHT22;18379;48.208;-1.518;2023-04-25T11:09:35;13.00;99.90
31809;DHT22;18379;48.208;-1.518;2023-04-25T11:14:37;12.90;99.90
31809;DHT22;18379;48.208;-1.518;2023-04-25T11:19:37;13.20;99.90
31809;DHT22;18379;48.208;-1.518;2023-04-25T11:24:38;13.90;99.90
31809;DHT22;18379;48.208;-1.518;2023-04-25T11:29:40;14.30;99.90
31809;DHT22;18379;48.208;-1.518;2023-04-25T11:34:43;14.40;99.90
31809;DHT22;18379;48.208;-1.518;2023-04-25T11:39:44;14.60;99.90
31809;DHT22;18379;48.208;-1.518;2023-04-25T11:44:47;15.10;99.90
31809;DHT22;18379;48.208;-1.518;2023-04-25T11:49:48;14.80;99.90
31809;DHT22;18379;48.208;-1.518;2023-04-25T11:54:53;14.60;99.90
31809;DHT22;18379;48.208;-1.518;2023-04-25T11:59:54;14.40;99.90
31809;DHT22;18379;48.208;-1.518;2023-04-25T12:04:59;14.30;99.90
31809;DHT22;18379;48.208;-1.518;2023-04-25T12:10:07;14.70;99.90
31809;DHT22;18379;48.208;-1.518;2023-04-25T12:15:10;14.70;99.90
31809;DHT22;18379;48.208;-1.518;2023-04-25T12:20:16;14.70;99.90
31809;DHT22;18379;48.208;-1.518;2023-04-25T12:25:43;14.90;99.90
31809;DHT22;18379;48.208;-1.518;2023-04-25T12:31:05;15.30;99.90
31809;DHT22;18379;48.208;-1.518;2023-04-25T12:36:06;15.60;99.90
31809;DHT22;18379;48.208;-1.518;2023-04-25T12:41:12;15.80;99.90
31809;DHT22;18379;48.208;-1.518;2023-04-25T12:46:13;15.70;99.90
31809;DHT22;18379;48.208;-1.518;2023-04-25T12:51:14;15.60;99.90
31809;DHT22;18379;48.208;-1.518;2023-04-25T12:56:15;15.60;99.90
31809;DHT22;18379;48.208;-1.518;2023-04-25T13:01:15;15.20;99.90
31809;DHT22;18379;48.208;-1.518;2023-04-25T13:06:17;14.80;99.90
31809;DHT22;18379;48.208;-1.518;2023-04-25T13:11:18;15.10;99.90
31809;DHT22;18379;48.208;-1.518;2023-04-25T13:16:19;15.60;99.90
31809;DHT22;18379;48.208;-1.518;2023-04-25T13:21:21;15.70;99.90
31809;DHT22;18379;48.208;-1.518;2023-04-25T13:26:22;15.30;99.90
31809;DHT22;18379;48.208;-1.518;2023-04-25T13:31:23;15.40;99.90
31809;DHT22;18379;48.208;-1.518;2023-04-25T13:36:24;15.30;99.90
31809;DHT22;18379;48.208;-1.518;2023-04-25T13:41:25;15.30;99.90
31809;DHT22;18379;48.208;-1.518;2023-04-25T13:46:26;16.00;99.90
31809;DHT22;18379;48.208;-1.518;2023-04-25T13:51:27;16.10;99.90
31809;DHT22;18379;48.208;-1.518;2023-04-25T13:56:27;16.20;99.90
31809;DHT22;18379;48.208;-1.518;2023-04-25T14:01:28;16.50;99.90
31809;DHT22;18379;48.208;-1.518;2023-04-25T14:06:32;16.00;99.90
31809;DHT22;18379;48.208;-1.518;2023-04-25T14:11:33;16.10;99.90
31809;DHT22;18379;48.208;-1.518;2023-04-25T14:16:34;16.20;99.90
31809;DHT22;18379;48.208;-1.518;2023-04-25T14:21:35;16.70;99.90
31809;DHT22;18379;48.208;-1.518;2023-04-25T14:26:37;17.10;99.90
31809;DHT22;18379;48.208;-1.518;2023-04-25T14:31:39;17.60;99.90
31809;DHT22;18379;48.208;-1.518;2023-04-25T14:36:40;17.30;99.90
31809;DHT22;18379;48.208;-1.518;2023-04-25T14:41:41;17.10;99.90
31809;DHT22;18379;48.208;-1.518;2023-04-25T14:46:42;16.80;99.90
31809;DHT22;18379;48.208;-1.518;2023-04-25T14:51:43;16.00;99.90
31809;DHT22;18379;48.208;-1.518;2023-04-25T14:56:44;15.90;99.90
31809;DHT22;18379;48.208;-1.518;2023-04-25T15:01:45;16.20;99.90
31809;DHT22;18379;48.208;-1.518;2023-04-25T15:06:46;17.10;99.90
31809;DHT22;18379;48.208;-1.518;2023-04-25T15:11:47;18.50;99.90
31809;DHT22;18379;48.208;-1.518;2023-04-25T15:16:48;18.40;99.90
31809;DHT22;18379;48.208;-1.518;2023-04-25T15:21:48;17.90;99.90
31809;DHT22;18379;48.208;-1.518;2023-04-25T15:26:49;17.50;99.90
31809;DHT22;18379;48.208;-1.518;2023-04-25T15:31:51;17.10;99.90
31809;DHT22;18379;48.208;-1.518;2023-04-25T15:36:52;16.80;99.90
31809;DHT22;18379;48.208;-1.518;2023-04-25T15:41:53;16.70;99.90
31809;DHT22;18379;48.208;-1.518;2023-04-25T15:46:54;16.70;99.90
31809;DHT22;18379;48.208;-1.518;2023-04-25T15:51:55;16.80;99.90
31809;DHT22;18379;48.208;-1.518;2023-04-25T15:56:57;16.60;99.90
31809;DHT22;18379;48.208;-1.518;2023-04-25T16:01:57;16.40;99.90
31809;DHT22;18379;48.208;-1.518;2023-04-25T16:06:58;15.90;99.90
31809;DHT22;18379;48.208;-1.518;2023-04-25T16:12:00;15.80;99.90
31809;DHT22;18379;48.208;-1.518;2023-04-25T16:17:01;15.70;99.90
31809;DHT22;18379;48.208;-1.518;2023-04-25T16:22:01;15.50;99.90
31809;DHT22;18379;48.208;-1.518;2023-04-25T16:27:03;15.60;99.90
31809;DHT22;18379;48.208;-1.518;2023-04-25T16:32:05;15.60;99.90
31809;DHT22;18379;48.208;-1.518;2023-04-25T16:37:06;15.60;99.90
31809;DHT22;18379;48.208;-1.518;2023-04-25T16:42:07;15.60;99.90
31809;DHT22;18379;48.208;-1.518;2023-04-25T16:47:07;15.40;99.90
31809;DHT22;18379;48.208;-1.518;2023-04-25T16:52:08;15.20;99.90
31809;DHT22;18379;48.208;-1.518;2023-04-25T16:57:13;15.00;99.90
31809;DHT22;18379;48.208;-1.518;2023-04-25T17:02:18;15.00;99.90
31809;DHT22;18379;48.208;-1.518;2023-04-25T17:07:18;15.00;99.90
31809;DHT22;18379;48.208;-1.518;2023-04-25T17:12:23;15.20;99.90
31809;DHT22;18379;48.208;-1.518;2023-04-25T17:17:24;15.30;99.90
31809;DHT22;18379;48.208;-1.518;2023-04-25T17:22:26;15.40;99.90
31809;DHT22;18379;48.208;-1.518;2023-04-25T17:27:27;15.30;99.90
31809;DHT22;18379;48.208;-1.518;2023-04-25T17:32:50;15.40;99.90
31809;DHT22;18379;48.208;-1.518;2023-04-25T17:37:51;15.10;99.90
31809;DHT22;18379;48.208;-1.518;2023-04-25T17:42:53;14.90;99.90
31809;DHT22;18379;48.208;-1.518;2023-04-25T17:47:55;14.90;99.90
31809;DHT22;18379;48.208;-1.518;2023-04-25T17:52:55;14.80;99.90
31809;DHT22;18379;48.208;-1.518;2023-04-25T17:57:56;14.80;99.90
31809;DHT22;18379;48.208;-1.518;2023-04-25T18:02:57;14.80;99.90
31809;DHT22;18379;48.208;-1.518;2023-04-25T18:07:58;14.70;99.90
31809;DHT22;18379;48.208;-1.518;2023-04-25T18:12:59;14.70;99.90
31809;DHT22;18379;48.208;-1.518;2023-04-25T18:17:59;14.70;99.90
31809;DHT22;18379;48.208;-1.518;2023-04-25T18:23:03;14.70;99.90
31809;DHT22;18379;48.208;-1.518;2023-04-25T18:28:03;14.60;99.90
31809;DHT22;18379;48.208;-1.518;2023-04-25T18:33:04;14.40;99.90
31809;DHT22;18379;48.208;-1.518;2023-04-25T18:38:05;14.30;99.90
31809;DHT22;18379;48.208;-1.518;2023-04-25T18:43:06;14.10;99.90
31809;DHT22;18379;48.208;-1.518;2023-04-25T18:48:07;14.00;99.90
31809;DHT22;18379;48.208;-1.518;2023-04-25T18:53:08;13.90;99.90
31809;DHT22;18379;48.208;-1.518;2023-04-25T18:58:09;13.80;99.90
31809;DHT22;18379;48.208;-1.518;2023-04-25T19:03:10;13.80;99.90
31809;DHT22;18379;48.208;-1.518;2023-04-25T19:08:11;13.60;99.90
31809;DHT22;18379;48.208;-1.518;2023-04-25T19:13:12;13.30;99.90
31809;DHT22;18379;48.208;-1.518;2023-04-25T19:18:13;13.30;99.90
31809;DHT22;18379;48.208;-1.518;2023-04-25T19:23:14;13.20;99.90
31809;DHT22;18379;48.208;-1.518;2023-04-25T19:28:15;13.00;99.90
31809;DHT22;18379;48.208;-1.518;2023-04-25T19:33:17;12.80;99.90
31809;DHT22;18379;48.208;-1.518;2023-04-25T19:38:18;12.70;99.90
31809;DHT22;18379;48.208;-1.518;2023-04-25T19:43:18;12.60;99.90
31809;DHT22;18379;48.208;-1.518;2023-04-25T19:48:19;12.50;99.90
31809;DHT22;18379;48.208;-1.518;2023-04-25T19:53:20;12.50;99.90
31809;DHT22;18379;48.208;-1.518;2023-04-25T19:58:21;12.50;99.90
31809;DHT22;18379;48.208;-1.518;2023-04-25T20:03:22;12.40;99.90
31809;DHT22;18379;48.208;-1.518;2023-04-25T20:08:24;12.40;99.90
31809;DHT22;18379;48.208;-1.518;2023-04-25T20:13:25;12.40;99.90
31809;DHT22;18379;48.208;-1.518;2023-04-25T20:18:26;12.40;99.90
31809;DHT22;18379;48.208;-1.518;2023-04-25T20:23:27;12.40;99.90
31809;DHT22;18379;48.208;-1.518;2023-04-25T20:28:27;12.30;99.90
31809;DHT22;18379;48.208;-1.518;2023-04-25T20:33:28;12.20;99.90
31809;DHT22;18379;48.208;-1.518;2023-04-25T20:38:29;12.20;99.90
31809;DHT22;18379;48.208;-1.518;2023-04-25T20:43:30;12.20;99.90
31809;DHT22;18379;48.208;-1.518;2023-04-25T20:48:31;12.10;99.90
31809;DHT22;18379;48.208;-1.518;2023-04-25T20:53:32;12.10;99.90
31809;DHT22;18379;48.208;-1.518;2023-04-25T20:58:34;12.00;99.90
31809;DHT22;18379;48.208;-1.518;2023-04-25T21:03:34;12.00;99.90
31809;DHT22;18379;48.208;-1.518;2023-04-25T21:08:35;12.00;99.90
31809;DHT22;18379;48.208;-1.518;2023-04-25T21:13:36;12.00;99.90
31809;DHT22;18379;48.208;-1.518;2023-04-25T21:18:38;11.90;99.90
31809;DHT22;18379;48.208;-1.518;2023-04-25T21:23:40;11.90;99.90
31809;DHT22;18379;48.208;-1.518;2023-04-25T21:28:41;11.80;99.90
31809;DHT22;18379;48.208;-1.518;2023-04-25T21:33:41;11.90;99.90
31809;DHT22;18379;48.208;-1.518;2023-04-25T21:38:42;11.90;99.90
31809;DHT22;18379;48.208;-1.518;2023-04-25T21:43:43;11.90;99.90
31809;DHT22;18379;48.208;-1.518;2023-04-25T21:48:44;11.80;99.90
31809;DHT22;18379;48.208;-1.518;2023-04-25T21:53:45;11.80;99.90
31809;DHT22;18379;48.208;-1.518;2023-04-25T21:58:46;11.70;99.90
31809;DHT22;18379;48.208;-1.518;2023-04-25T22:03:47;11.80;99.90
31809;DHT22;18379;48.208;-1.518;2023-04-25T22:08:47;11.80;99.90
31809;DHT22;18379;48.208;-1.518;2023-04-25T22:13:49;11.80;99.90
31809;DHT22;18379;48.208;-1.518;2023-04-25T22:18:50;11.80;99.90
31809;DHT22;18379;48.208;-1.518;2023-04-25T22:23:52;11.80;99.90
31809;DHT22;18379;48.208;-1.518;2023-04-25T22:28:53;11.80;99.90
31809;DHT22;18379;48.208;-1.518;2023-04-25T22:33:54;11.80;99.90
31809;DHT22;18379;48.208;-1.518;2023-04-25T22:38:55;11.80;99.90
31809;DHT22;18379;48.208;-1.518;2023-04-25T22:43:56;11.90;99.90
31809;DHT22;18379;48.208;-1.518;2023-04-25T22:48:57;11.90;99.90
31809;DHT22;18379;48.208;-1.518;2023-04-25T22:53:58;11.90;99.90
31809;DHT22;18379;48.208;-1.518;2023-04-25T22:59:00;11.90;99.90
31809;DHT22;18379;48.208;-1.518;2023-04-25T23:04:01;11.90;99.90
31809;DHT22;18379;48.208;-1.518;2023-04-25T23:09:01;11.80;99.90
31809;DHT22;18379;48.208;-1.518;2023-04-25T23:14:03;11.80;99.90
31809;DHT22;18379;48.208;-1.518;2023-04-25T23:19:04;11.70;99.90
31809;DHT22;18379;48.208;-1.518;2023-04-25T23:24:06;11.70;99.90
31809;DHT22;18379;48.208;-1.518;2023-04-25T23:29:06;11.70;99.90
31809;DHT22;18379;48.208;-1.518;2023-04-25T23:34:07;11.70;99.90
31809;DHT22;18379;48.208;-1.518;2023-04-25T23:39:08;11.70;99.90
31809;DHT22;18379;48.208;-1.518;2023-04-25T23:44:09;11.70;99.90
31809;DHT22;18379;48.208;-1.518;2023-04-25T23:49:11;11.70;99.90
31809;DHT22;18379;48.208;-1.518;2023-04-25T23:54:12;11.60;99.90
31809;DHT22;18379;48.208;-1.518;2023-04-25T23:59:13;11.60;99.90
